createdAt,value
2019-05-12T00:01:49.493Z,19.60
2019-05-12T00:04:20.000Z,18.35
2019-05-12T00:06:50.264Z,18.73
2019-05-12T00:09:20.539Z,18.87
2019-05-12T00:11:50.877Z,18.10
2019-05-12T00:14:21.269Z,20.32
2019-05-12T00:16:51.576Z,19.62
2019-05-12T00:19:21.905Z,21.82
2019-05-12T00:21:52.052Z,20.90
2019-05-12T00:24:22.071Z,21.40
2019-05-12T00:26:53.710Z,20.27
2019-05-12T00:29:23.779Z,21.85
2019-05-12T00:31:53.817Z,21.70
2019-05-12T00:34:24.600Z,20.20
2019-05-12T00:36:54.988Z,22.35
2019-05-12T00:39:27.748Z,22.30
2019-05-12T00:41:58.624Z,23.98
2019-05-12T00:44:29.150Z,20.75
2019-05-12T00:46:59.518Z,21.45
2019-05-12T00:49:30.698Z,18.57
2019-05-12T00:52:01.870Z,19.00
2019-05-12T00:54:33.153Z,20.72
2019-05-12T00:57:04.374Z,19.32
2019-05-12T00:59:35.515Z,18.00
2019-05-12T01:02:07.986Z,18.73
2019-05-12T01:04:39.302Z,18.02
2019-05-12T01:07:10.521Z,16.27
2019-05-12T01:09:41.827Z,15.68
2019-05-12T01:12:13.078Z,14.35
2019-05-12T01:14:44.410Z,13.78
2019-05-12T01:17:17.669Z,13.88
2019-05-12T01:19:48.619Z,14.53
2019-05-12T01:22:19.639Z,15.38
2019-05-12T01:24:50.509Z,15.32
2019-05-12T01:27:21.502Z,14.25
2019-05-12T01:29:52.723Z,15.35
2019-05-12T01:32:31.709Z,16.02
2019-05-12T01:35:03.030Z,14.83
2019-05-12T01:37:35.162Z,15.88
2019-05-12T01:40:08.758Z,14.47
2019-05-12T01:42:39.899Z,14.30
2019-05-12T01:45:11.191Z,14.83
2019-05-12T01:47:42.760Z,15.03
2019-05-12T01:50:13.984Z,14.78
2019-05-12T01:52:45.130Z,14.03
2019-05-12T01:55:18.437Z,15.20
2019-05-12T01:57:49.259Z,14.73
2019-05-12T02:00:20.923Z,16.50
2019-05-12T02:02:52.054Z,14.68
2019-05-12T02:05:23.313Z,14.18
2019-05-12T02:07:58.099Z,15.38
2019-05-12T02:10:28.950Z,14.00
2019-05-12T02:13:00.161Z,14.75
2019-05-12T02:15:31.322Z,14.50
2019-05-12T02:18:02.194Z,15.18
2019-05-12T02:20:33.086Z,14.15
2019-05-12T02:23:04.020Z,14.43
2019-05-12T02:25:37.846Z,13.93
2019-05-12T02:28:09.149Z,13.58
2019-05-12T02:30:42.013Z,14.15
2019-05-12T02:33:15.911Z,13.22
2019-05-12T02:35:46.210Z,12.80
2019-05-12T02:38:17.075Z,14.00
2019-05-12T02:40:48.303Z,13.45
2019-05-12T02:43:19.527Z,13.53
2019-05-12T02:45:50.705Z,13.93
2019-05-12T02:48:24.522Z,13.38
2019-05-12T02:50:54.970Z,14.20
2019-05-12T02:53:26.329Z,14.23
2019-05-12T02:55:57.414Z,14.03
2019-05-12T02:58:29.605Z,15.10
2019-05-12T03:01:05.507Z,13.88
2019-05-12T03:03:37.452Z,15.08
2019-05-12T03:06:08.825Z,13.93
2019-05-12T03:08:40.248Z,16.10
2019-05-12T03:11:14.778Z,15.10
2019-05-12T03:13:44.994Z,14.58
2019-05-12T03:16:16.053Z,14.85
2019-05-12T03:18:47.392Z,14.50
2019-05-12T03:21:18.576Z,14.35
2019-05-12T03:23:48.977Z,15.15
2019-05-12T03:26:19.300Z,14.80
2019-05-12T03:28:49.603Z,14.05
2019-05-12T03:31:25.324Z,13.85
2019-05-12T03:33:52.935Z,13.85
2019-05-12T03:36:32.150Z,13.83
2019-05-12T03:38:55.282Z,13.80
2019-05-12T03:41:25.861Z,13.10
2019-05-12T03:43:56.145Z,14.20
2019-05-12T03:46:26.924Z,14.05
2019-05-12T03:48:57.780Z,13.15
2019-05-12T03:51:29.048Z,13.78
2019-05-12T03:53:59.514Z,14.47
2019-05-12T03:56:30.553Z,14.43
2019-05-12T03:59:04.442Z,13.00
2019-05-12T04:01:36.550Z,12.70
2019-05-12T04:04:07.428Z,13.55
2019-05-12T04:06:37.439Z,12.85
2019-05-12T04:09:08.273Z,12.68
2019-05-12T04:11:38.596Z,14.25
2019-05-12T04:14:08.679Z,12.65
2019-05-12T04:16:38.725Z,12.30
2019-05-12T04:19:09.491Z,12.28
2019-05-12T04:21:44.367Z,12.45
2019-05-12T04:24:14.560Z,11.38
2019-05-12T04:26:45.128Z,12.07
2019-05-12T04:29:15.710Z,12.80
2019-05-12T04:31:46.317Z,11.78
2019-05-12T04:34:19.195Z,12.35
2019-05-12T04:36:48.493Z,12.90
2019-05-12T04:39:18.924Z,12.73
2019-05-12T04:41:48.947Z,13.25
2019-05-12T04:44:18.994Z,12.80
2019-05-12T04:46:49.029Z,14.73
2019-05-12T04:49:19.355Z,15.32
2019-05-12T04:51:49.646Z,14.33
2019-05-12T04:54:19.964Z,12.60
2019-05-12T04:56:50.029Z,12.60
2019-05-12T04:59:21.203Z,12.85
2019-05-12T05:01:53.888Z,11.22
2019-05-12T05:04:24.606Z,11.80
2019-05-12T05:06:55.188Z,11.28
2019-05-12T05:09:25.648Z,11.12
2019-05-12T05:11:56.030Z,11.05
2019-05-12T05:14:26.083Z,11.22
2019-05-12T05:16:57.320Z,10.60
2019-05-12T05:19:28.239Z,12.43
2019-05-12T05:21:58.353Z,11.68
2019-05-12T05:24:28.646Z,12.25
2019-05-12T05:26:58.709Z,12.05
2019-05-12T05:29:29.888Z,10.88
2019-05-12T05:32:00.839Z,11.08
2019-05-12T05:34:34.299Z,10.13
2019-05-12T05:37:05.612Z,11.40
2019-05-12T05:39:48.032Z,10.80
2019-05-12T05:42:08.428Z,10.45
2019-05-12T05:44:39.328Z,9.85
2019-05-12T05:47:09.794Z,10.18
2019-05-12T05:49:40.574Z,10.28
2019-05-12T05:52:13.723Z,9.73
2019-05-12T05:54:44.679Z,9.78
2019-05-12T05:57:20.024Z,9.58
2019-05-12T05:59:48.489Z,9.45
2019-05-12T06:02:25.400Z,9.93
2019-05-12T06:04:54.103Z,9.93
2019-05-12T06:07:34.478Z,8.80
2019-05-12T06:09:56.340Z,9.33
2019-05-12T06:12:26.887Z,9.05
2019-05-12T06:14:59.899Z,8.65
2019-05-12T06:17:30.622Z,8.25
2019-05-12T06:20:01.533Z,7.78
2019-05-12T06:22:34.275Z,8.30
2019-05-12T06:25:06.736Z,8.08
2019-05-12T06:27:37.589Z,8.73
2019-05-12T06:30:09.707Z,9.28
2019-05-12T06:32:41.225Z,8.78
2019-05-12T06:35:14.952Z,9.50
2019-05-12T06:37:57.420Z,8.55
2019-05-12T06:40:19.115Z,7.90
2019-05-12T06:42:54.183Z,7.62
2019-05-12T06:45:23.502Z,8.25
2019-05-12T06:47:56.061Z,7.70
2019-05-12T06:50:28.569Z,8.35
2019-05-12T06:53:13.960Z,6.58
2019-05-12T06:55:49.340Z,6.78
2019-05-12T06:58:29.617Z,7.10
2019-05-12T07:00:54.119Z,7.62
2019-05-12T07:03:30.356Z,7.40
2019-05-12T07:05:57.367Z,7.05
2019-05-12T07:08:32.794Z,6.72
2019-05-12T07:11:03.716Z,7.08
2019-05-12T07:13:34.314Z,7.47
2019-05-12T07:16:23.151Z,7.15
2019-05-12T07:18:50.482Z,6.42
2019-05-12T07:21:26.505Z,6.65
2019-05-12T07:23:54.250Z,6.80
2019-05-12T07:26:25.056Z,7.70
2019-05-12T07:28:55.909Z,5.85
2019-05-12T07:31:26.825Z,7.00
2019-05-12T07:33:59.393Z,6.50
2019-05-12T07:36:33.257Z,6.17
2019-05-12T07:39:08.566Z,6.45
2019-05-12T07:41:42.394Z,6.03
2019-05-12T07:44:15.213Z,5.55
2019-05-12T07:46:49.457Z,5.87
2019-05-12T07:49:22.642Z,6.33
2019-05-12T07:51:51.289Z,6.03
2019-05-12T07:54:23.564Z,5.55
2019-05-12T07:56:55.813Z,5.35
2019-05-12T07:59:34.552Z,5.47
2019-05-12T08:01:59.247Z,5.37
2019-05-12T08:04:31.655Z,5.40
2019-05-12T08:07:03.929Z,5.33
2019-05-12T08:09:36.406Z,5.62
2019-05-12T08:12:09.736Z,6.10
2019-05-12T08:14:43.802Z,5.65
2019-05-12T08:17:19.305Z,5.70
2019-05-12T08:19:47.560Z,5.42
2019-05-12T08:22:24.052Z,5.15
2019-05-12T08:24:53.801Z,4.60
2019-05-12T08:27:24.324Z,6.10
2019-05-12T08:30:00.945Z,5.10
2019-05-12T08:32:27.306Z,5.83
2019-05-12T08:34:57.572Z,6.05
2019-05-12T08:37:27.934Z,5.55
2019-05-12T08:40:03.154Z,5.25
2019-05-12T08:42:30.284Z,5.90
2019-05-12T08:45:00.391Z,5.15
2019-05-12T08:47:35.494Z,5.42
2019-05-12T08:50:04.549Z,5.20
2019-05-12T08:52:37.126Z,5.45
2019-05-12T08:55:07.451Z,4.60
2019-05-12T08:57:40.651Z,5.40
2019-05-12T09:00:10.229Z,5.00
2019-05-12T09:02:48.324Z,4.22
2019-05-12T09:05:14.402Z,4.65
2019-05-12T09:07:46.062Z,5.08
2019-05-12T09:10:17.020Z,4.12
2019-05-12T09:12:47.124Z,3.58
2019-05-12T09:15:17.240Z,5.00
2019-05-12T09:17:52.526Z,4.67
2019-05-12T09:20:20.470Z,4.80
2019-05-12T09:22:52.872Z,4.20
2019-05-12T09:25:23.902Z,4.85
2019-05-12T09:27:55.208Z,4.35
2019-05-12T09:30:30.363Z,4.05
2019-05-12T09:33:03.730Z,3.50
2019-05-12T09:35:39.103Z,4.33
2019-05-12T09:38:06.263Z,3.90
2019-05-12T09:40:36.595Z,3.83
2019-05-12T09:43:10.769Z,3.83
2019-05-12T09:45:40.141Z,4.20
2019-05-12T09:48:11.199Z,4.35
2019-05-12T09:50:44.204Z,4.12
2019-05-12T09:53:14.383Z,3.70
2019-05-12T09:55:46.012Z,3.83
2019-05-12T09:58:23.095Z,4.40
2019-05-12T10:00:49.060Z,3.70
2019-05-12T10:03:19.365Z,4.22
2019-05-12T10:05:50.460Z,4.30
2019-05-12T10:08:23.966Z,3.60
2019-05-12T10:10:53.958Z,4.00
2019-05-12T10:13:28.916Z,3.70
2019-05-12T10:15:58.641Z,3.90
2019-05-12T10:18:33.532Z,4.20
2019-05-12T10:21:04.241Z,7.12
2019-05-12T10:23:35.426Z,4.50
2019-05-12T10:26:14.594Z,4.50
2019-05-12T10:28:52.041Z,4.03
2019-05-12T10:31:18.762Z,4.30
2019-05-12T10:33:54.049Z,3.95
2019-05-12T10:36:21.952Z,3.47
2019-05-12T10:38:53.856Z,4.15
2019-05-12T10:41:24.786Z,4.35
2019-05-12T10:43:57.802Z,4.65
2019-05-12T10:46:28.589Z,4.90
2019-05-12T10:49:00.498Z,4.62
2019-05-12T10:51:30.801Z,5.20
2019-05-12T10:54:09.172Z,4.85
2019-05-12T10:56:34.834Z,5.17
2019-05-12T10:59:05.274Z,4.75
2019-05-12T11:01:38.417Z,4.67
2019-05-12T11:04:07.312Z,5.22
2019-05-12T11:06:39.638Z,5.20
2019-05-12T11:09:10.675Z,5.37
2019-05-12T11:11:43.714Z,5.03
2019-05-12T11:14:14.223Z,5.70
2019-05-12T11:16:44.714Z,5.60
2019-05-12T11:19:15.012Z,5.72
2019-05-12T11:21:45.437Z,6.10
2019-05-12T11:24:15.676Z,5.42
2019-05-12T11:26:45.806Z,14.78
2019-05-12T11:29:16.215Z,5.60
2019-05-12T11:31:46.546Z,5.95
2019-05-12T11:34:16.896Z,5.45
2019-05-12T11:36:47.334Z,5.95
2019-05-12T11:39:17.678Z,6.12
2019-05-12T11:41:47.964Z,6.47
2019-05-12T11:44:18.312Z,5.90
2019-05-12T11:46:48.600Z,6.80
2019-05-12T11:49:21.579Z,6.37
2019-05-12T11:51:50.800Z,6.72
2019-05-12T11:54:20.901Z,7.20
2019-05-12T11:56:53.388Z,6.97
2019-05-12T11:59:23.763Z,6.92
2019-05-12T12:01:56.120Z,7.25
2019-05-12T12:04:45.505Z,7.28
2019-05-12T12:07:15.996Z,7.00
2019-05-12T12:09:49.363Z,7.20
2019-05-12T12:12:18.324Z,7.08
2019-05-12T12:14:50.358Z,7.50
2019-05-12T12:17:25.437Z,7.92
2019-05-12T12:19:54.518Z,7.78
2019-05-12T12:22:28.088Z,8.43
2019-05-12T12:24:56.559Z,11.55
2019-05-12T12:27:26.650Z,7.90
2019-05-12T12:29:57.045Z,7.35
2019-05-12T12:32:27.473Z,11.55
2019-05-12T12:35:00.843Z,8.48
2019-05-12T12:37:29.758Z,8.15
2019-05-12T12:40:00.050Z,8.03
2019-05-12T12:42:35.872Z,8.63
2019-05-12T12:45:05.468Z,8.60
2019-05-12T12:47:43.617Z,8.08
2019-05-12T12:50:07.880Z,8.43
2019-05-12T12:52:38.703Z,7.60
2019-05-12T12:55:10.408Z,7.87
2019-05-12T12:57:46.411Z,7.80
2019-05-12T13:00:13.876Z,7.58
2019-05-12T13:02:49.108Z,7.58
2019-05-12T13:05:17.849Z,7.47
2019-05-12T13:07:48.231Z,7.90
2019-05-12T13:10:18.304Z,7.95
2019-05-12T13:12:50.349Z,8.38
2019-05-12T13:15:21.060Z,8.10
2019-05-12T13:17:51.959Z,8.48
2019-05-12T13:20:23.805Z,8.03
2019-05-12T13:22:54.476Z,8.25
2019-05-12T13:25:24.772Z,8.05
2019-05-12T13:27:55.226Z,7.75
2019-05-12T13:30:26.701Z,8.05
2019-05-12T13:32:56.736Z,9.38
2019-05-12T13:35:26.771Z,8.78
2019-05-12T13:38:00.480Z,8.78
2019-05-12T13:40:29.810Z,9.08
2019-05-12T13:43:00.972Z,9.03
2019-05-12T13:45:33.599Z,9.00
2019-05-12T13:48:09.454Z,8.33
2019-05-12T13:50:37.780Z,8.73
2019-05-12T13:53:10.401Z,9.15
2019-05-12T13:55:45.505Z,8.80
2019-05-12T13:58:14.229Z,8.50
2019-05-12T14:00:50.839Z,8.88
2019-05-12T14:03:17.916Z,13.72
2019-05-12T14:05:51.018Z,17.98
2019-05-12T14:08:23.810Z,8.40
2019-05-12T14:10:59.551Z,7.80
2019-05-12T14:13:28.144Z,8.48
2019-05-12T14:16:02.583Z,8.65
2019-05-12T14:18:33.075Z,9.90
2019-05-12T14:21:04.980Z,8.90
2019-05-12T14:23:35.910Z,9.03
2019-05-12T14:26:09.352Z,9.20
2019-05-12T14:28:45.607Z,10.03
2019-05-12T14:31:24.508Z,8.45
2019-05-12T14:33:45.786Z,8.98
2019-05-12T14:36:22.009Z,8.80
2019-05-12T14:38:49.178Z,9.08
2019-05-12T14:41:20.085Z,9.83
2019-05-12T14:43:53.496Z,8.50
2019-05-12T14:46:24.206Z,8.93
2019-05-12T14:48:55.621Z,10.28
2019-05-12T14:51:26.520Z,8.85
2019-05-12T14:53:57.594Z,8.93
2019-05-12T14:56:28.446Z,9.65
2019-05-12T14:59:00.724Z,8.55
2019-05-12T15:01:44.217Z,8.68
2019-05-12T15:04:05.226Z,8.58
2019-05-12T15:06:36.556Z,8.00
2019-05-12T15:09:11.545Z,9.20
2019-05-12T15:11:41.051Z,9.25
2019-05-12T15:14:13.783Z,10.75
2019-05-12T15:16:45.082Z,11.35
2019-05-12T15:19:20.775Z,11.08
2019-05-12T15:21:48.370Z,10.82
2019-05-12T15:24:19.691Z,9.83
2019-05-12T15:26:57.593Z,10.93
2019-05-12T15:29:23.696Z,10.78
2019-05-12T15:31:56.824Z,8.90
2019-05-12T15:34:28.529Z,9.40
2019-05-12T15:37:00.325Z,9.83
2019-05-12T15:39:33.458Z,10.35
2019-05-12T15:42:04.814Z,11.08
2019-05-12T15:44:38.597Z,11.43
2019-05-12T15:47:09.789Z,11.00
2019-05-12T15:49:40.674Z,12.03
2019-05-12T15:52:14.233Z,10.28
2019-05-12T15:54:47.166Z,10.70
2019-05-12T15:57:16.988Z,9.68
2019-05-12T15:59:48.366Z,9.13
2019-05-12T16:02:19.317Z,10.05
2019-05-12T16:04:49.692Z,10.63
2019-05-12T16:07:20.268Z,8.83
2019-05-12T16:09:54.102Z,8.55
2019-05-12T16:12:26.942Z,7.85
2019-05-12T16:14:57.001Z,8.05
2019-05-12T16:17:27.833Z,6.25
2019-05-12T16:19:59.022Z,9.85
2019-05-12T16:22:30.558Z,10.10
2019-05-12T16:25:04.282Z,11.03
2019-05-12T16:27:37.250Z,10.10
2019-05-12T16:30:08.363Z,13.38
2019-05-12T16:32:46.467Z,10.30
2019-05-12T16:35:14.491Z,8.35
2019-05-12T16:37:45.015Z,7.92
2019-05-12T16:40:16.236Z,7.28
2019-05-12T16:42:52.632Z,6.62
2019-05-12T16:45:20.231Z,6.70
2019-05-12T16:47:53.460Z,6.00
2019-05-12T16:50:27.683Z,6.65
2019-05-12T16:52:57.157Z,6.40
2019-05-12T16:55:28.593Z,6.58
2019-05-12T16:57:59.857Z,6.58
2019-05-12T17:00:33.798Z,6.10
2019-05-12T17:03:04.107Z,6.28
2019-05-12T17:05:35.483Z,6.33
2019-05-12T17:08:06.444Z,6.60
2019-05-12T17:10:38.645Z,5.95
2019-05-12T17:13:13.736Z,6.17
2019-05-12T17:15:48.821Z,7.17
2019-05-12T17:18:18.013Z,7.42
2019-05-12T17:20:51.019Z,7.47
2019-05-12T17:23:24.817Z,7.58
2019-05-12T17:25:55.373Z,7.62
2019-05-12T17:28:28.450Z,7.35
2019-05-12T17:31:03.957Z,7.40
2019-05-12T17:33:35.411Z,7.87
2019-05-12T17:36:24.241Z,8.38
2019-05-12T17:38:56.123Z,8.45
2019-05-12T17:41:31.576Z,8.15
2019-05-12T17:44:15.857Z,7.78
2019-05-12T17:46:47.042Z,8.50
2019-05-12T17:49:25.590Z,8.15
2019-05-12T17:51:50.469Z,8.78
2019-05-12T17:54:26.225Z,8.10
2019-05-12T17:56:56.746Z,9.28
2019-05-12T17:59:29.198Z,9.68
2019-05-12T18:02:05.701Z,9.55
2019-05-12T18:04:37.362Z,9.70
2019-05-12T18:07:14.443Z,10.72
2019-05-12T18:09:44.175Z,10.88
2019-05-12T18:12:15.566Z,11.20
2019-05-12T18:14:52.037Z,12.10
2019-05-12T18:17:17.763Z,11.38
2019-05-12T18:19:50.389Z,11.40
2019-05-12T18:22:24.696Z,11.78
2019-05-12T18:24:58.687Z,11.48
2019-05-12T18:27:34.987Z,10.90
2019-05-12T18:30:04.320Z,12.23
2019-05-12T18:32:33.430Z,10.28
2019-05-12T18:35:04.341Z,11.53
2019-05-12T18:37:36.277Z,11.70
2019-05-12T18:40:08.193Z,11.93
2019-05-12T18:42:40.761Z,12.20
2019-05-12T18:45:12.536Z,11.65
2019-05-12T18:47:43.955Z,12.00
2019-05-12T18:50:14.458Z,12.82
2019-05-12T18:52:46.336Z,12.25
2019-05-12T18:55:18.124Z,13.40
2019-05-12T18:57:50.232Z,13.15
2019-05-12T19:00:23.843Z,13.70
2019-05-12T19:02:59.593Z,12.18
2019-05-12T19:05:30.937Z,13.25
2019-05-12T19:08:03.528Z,14.80
2019-05-12T19:10:38.435Z,13.65
2019-05-12T19:13:06.851Z,15.05
2019-05-12T19:15:38.336Z,16.23
2019-05-12T19:18:11.209Z,15.65
2019-05-12T19:20:48.093Z,16.42
2019-05-12T19:23:18.645Z,15.40
2019-05-12T19:25:50.393Z,17.25
2019-05-12T19:28:23.679Z,23.60
2019-05-12T19:30:54.765Z,28.00
2019-05-12T19:33:25.784Z,29.85
2019-05-12T19:36:04.388Z,25.50
2019-05-12T19:38:31.607Z,21.20
2019-05-12T19:41:01.670Z,19.52
2019-05-12T19:43:33.851Z,17.55
2019-05-12T19:46:04.881Z,17.42
2019-05-12T19:48:43.028Z,17.10
2019-05-12T19:51:20.970Z,17.98
2019-05-12T19:53:38.745Z,17.57
2019-05-12T19:56:08.957Z,16.17
2019-05-12T19:58:39.264Z,17.07
2019-05-12T20:01:09.311Z,16.32
2019-05-12T20:03:40.159Z,16.48
2019-05-12T20:06:13.387Z,15.70
2019-05-12T20:08:43.703Z,14.45
2019-05-12T20:11:14.845Z,13.62
2019-05-12T20:13:44.892Z,14.35
2019-05-12T20:16:21.349Z,13.00
2019-05-12T20:18:49.195Z,13.18
2019-05-12T20:21:26.151Z,12.23
2019-05-12T20:23:54.424Z,11.15
2019-05-12T20:26:25.380Z,11.08
2019-05-12T20:28:56.283Z,11.25
2019-05-12T20:31:27.957Z,10.95
2019-05-12T20:34:04.576Z,11.03
2019-05-12T20:36:29.835Z,10.10
2019-05-12T20:38:59.976Z,10.72
2019-05-12T20:41:30.035Z,9.35
2019-05-12T20:44:00.088Z,9.10
2019-05-12T20:46:30.123Z,8.60
2019-05-12T20:49:01.148Z,7.62
2019-05-12T20:51:33.942Z,7.15
2019-05-12T20:54:07.474Z,7.37
2019-05-12T20:56:35.142Z,7.20
2019-05-12T20:59:05.996Z,6.60
2019-05-12T21:01:36.126Z,6.85
2019-05-12T21:04:07.736Z,5.78
2019-05-12T21:06:41.753Z,6.42
2019-05-12T21:09:10.201Z,5.90
2019-05-12T21:11:44.059Z,5.17
2019-05-12T21:14:14.787Z,5.28
2019-05-12T21:16:45.842Z,5.22
2019-05-12T21:19:16.721Z,4.60
2019-05-12T21:21:47.575Z,4.35
2019-05-12T21:24:18.449Z,4.83
2019-05-12T21:26:49.310Z,4.42
2019-05-12T21:29:25.599Z,4.58
2019-05-12T21:31:53.211Z,4.22
2019-05-12T21:34:25.540Z,4.42
2019-05-12T21:36:59.065Z,3.80
2019-05-12T21:39:29.634Z,3.62
2019-05-12T21:42:00.994Z,4.05
2019-05-12T21:44:32.288Z,3.60
2019-05-12T21:47:09.994Z,4.17
2019-05-12T21:49:34.944Z,4.30
2019-05-12T21:52:06.632Z,3.75
2019-05-12T21:54:39.525Z,4.53
2019-05-12T21:57:09.305Z,4.10
2019-05-12T21:59:40.671Z,4.00
2019-05-12T22:02:10.781Z,3.72
2019-05-12T22:04:41.488Z,4.22
2019-05-12T22:07:14.591Z,3.75
2019-05-12T22:09:46.872Z,3.92
2019-05-12T22:12:17.623Z,4.00
2019-05-12T22:14:48.528Z,5.53
2019-05-12T22:17:19.399Z,6.58
2019-05-12T22:19:49.692Z,6.95
2019-05-12T22:22:24.935Z,6.12
2019-05-12T22:24:53.767Z,6.55
2019-05-12T22:27:27.256Z,6.45
2019-05-12T22:29:57.293Z,6.15
2019-05-12T22:32:29.576Z,6.85
2019-05-12T22:34:58.970Z,5.83
2019-05-12T22:37:34.884Z,5.05
2019-05-12T22:40:06.291Z,4.70
2019-05-12T22:42:34.817Z,4.80
2019-05-12T22:45:06.332Z,4.30
2019-05-12T22:47:37.210Z,4.22
2019-05-12T22:50:07.537Z,4.22
2019-05-12T22:52:39.156Z,4.03
2019-05-12T22:55:10.461Z,3.65
2019-05-12T22:57:43.552Z,3.70
2019-05-12T23:00:19.302Z,3.90
2019-05-12T23:02:48.744Z,4.10
2019-05-12T23:05:20.570Z,3.72
2019-05-12T23:07:51.754Z,3.20
2019-05-12T23:10:24.322Z,3.30
2019-05-12T23:12:59.577Z,3.80
2019-05-12T23:15:28.067Z,3.60
2019-05-12T23:17:59.229Z,3.62
2019-05-12T23:20:31.124Z,4.40
2019-05-12T23:23:04.064Z,3.80
2019-05-12T23:25:36.236Z,3.90
2019-05-12T23:28:10.428Z,4.15
2019-05-12T23:30:43.720Z,4.40
2019-05-12T23:33:14.119Z,3.92
2019-05-12T23:35:45.566Z,4.03
2019-05-12T23:38:20.915Z,3.83
2019-05-12T23:40:49.376Z,3.50
2019-05-12T23:43:20.616Z,4.12
2019-05-12T23:45:53.300Z,3.90
2019-05-12T23:48:25.692Z,3.60
2019-05-12T23:50:56.505Z,3.70
2019-05-12T23:53:27.650Z,3.45
2019-05-12T23:55:58.046Z,4.20
2019-05-12T23:58:29.102Z,3.77
